Terminal Aerodrome Forecast
Issued by NWS

Home | Current Version | Previous Version | Text Only | Print | Product List | Glossary On
Versions: 1 2 3 4 5 6 7 8 9 10 11 12
000
FTUS42 TJSJ 281700 RRA
TAFJBQ
TAF
TJBQ 281742Z 2818/2918 09006KT P6SM VCSH SCT025 BKN060
      TEMPO 2819/2820 SHRA BKN030 OVC045
     FM282300 09010KT P6SM VCSH SCT025 SCT035 SCT045
     FM291300 07014G20KT P6SM VCSH SCT025 BKN030=

USA.gov is the U.S. government's official web portal to all federal, state and local government web resources and services.